Time;durP1;ratioP1;P1;durP2;ratioP2;P2;SDS_P1;SDS_P2;PMS_P1;PMS_P2;Temp;Humidity;BMP_temperature;BMP_pressure;BME280_temperature;BME280_humidity;BME280_pressure;Samples;Min_cycle;Max_cycle;Signal;HPM_P1;HPM_P2
2022/05/13 00:01:53;;;;;;;11.18;10.00;;;17.60;99.90;;;;;;5018546;28;20030;-87
2022/05/13 00:04:19;;;;;;;11.57;10.48;;;17.60;99.90;;;;;;5016075;28;20026;-87
2022/05/13 00:06:45;;;;;;;12.88;10.65;;;17.50;99.90;;;;;;5021091;28;20050;-88
2022/05/13 00:09:11;;;;;;;13.65;10.32;;;17.40;99.90;;;;;;5016340;28;20030;-87
2022/05/13 00:11:37;;;;;;;11.65;10.45;;;17.30;99.90;;;;;;5021832;28;20032;-86
2022/05/13 00:14:07;;;;;;;15.43;10.88;;;17.30;99.90;;;;;;5022514;28;20400;-86
2022/05/13 00:16:36;;;;;;;13.65;10.20;;;17.20;99.90;;;;;;5017623;28;20030;-87
2022/05/13 00:19:11;;;;;;;14.50;9.95;;;17.10;99.90;;;;;;5014118;28;20049;-86
2022/05/13 00:21:39;;;;;;;14.45;11.15;;;17.10;99.90;;;;;;5021131;28;20027;-87
2022/05/13 00:24:26;;;;;;;13.73;11.30;;;17.10;99.90;;;;;;5015875;28;20257;-88
2022/05/13 00:27:01;;;;;;;14.75;10.50;;;17.00;99.90;;;;;;5017015;28;20041;-87
2022/05/13 00:30:09;;;;;;;10.68;9.57;;;17.00;99.90;;;;;;5021494;28;20043;-86
2022/05/13 00:33:32;;;;;;;18.42;11.80;;;16.90;99.90;;;;;;4949750;28;20653;-86
2022/05/13 00:38:43;;;;;;;14.80;11.13;;;16.80;99.90;;;;;;5015855;28;20327;-86
2022/05/13 00:41:19;;;;;;;12.38;10.45;;;16.90;99.90;;;;;;5009818;28;20033;-86
2022/05/13 00:44:09;;;;;;;17.48;11.57;;;16.90;99.90;;;;;;5015263;28;20034;-86
2022/05/13 00:47:01;;;;;;;12.98;10.82;;;16.80;99.90;;;;;;5015899;28;20046;-86
2022/05/13 00:49:50;;;;;;;14.13;10.60;;;16.80;99.90;;;;;;4999732;28;20508;-86
2022/05/13 00:52:45;;;;;;;15.32;10.02;;;16.90;99.90;;;;;;4997024;28;20042;-86
2022/05/13 00:55:40;;;;;;;15.52;11.18;;;16.80;99.90;;;;;;5006194;28;20099;-88
2022/05/13 00:58:09;;;;;;;13.35;10.15;;;16.80;99.90;;;;;;5008483;28;20045;-88
2022/05/13 01:00:36;;;;;;;13.50;9.77;;;16.80;99.90;;;;;;5005067;28;20405;-88
2022/05/13 01:03:03;;;;;;;16.98;10.20;;;16.80;99.90;;;;;;5007296;28;20026;-88
2022/05/13 01:05:29;;;;;;;15.35;11.02;;;16.70;99.90;;;;;;5009175;28;20056;-89
2022/05/13 01:08:04;;;;;;;11.27;10.07;;;16.60;99.90;;;;;;5012459;28;20053;-89
2022/05/13 01:10:59;;;;;;;11.05;9.93;;;16.60;99.90;;;;;;5006473;28;20369;-86
2022/05/13 01:13:29;;;;;;;14.65;10.25;;;16.50;99.90;;;;;;5012687;28;20091;-88
2022/05/13 01:15:55;;;;;;;13.52;10.25;;;16.50;99.90;;;;;;5004533;28;20030;-87
2022/05/13 01:18:31;;;;;;;13.48;9.82;;;16.50;99.90;;;;;;5009849;28;20669;-88
2022/05/13 01:20:58;;;;;;;11.68;9.88;;;16.50;99.90;;;;;;5013355;28;20018;-89
2022/05/13 01:23:25;;;;;;;15.15;10.02;;;16.50;99.90;;;;;;5011468;28;20389;-89
2022/05/13 01:26:11;;;;;;;14.15;10.30;;;16.40;99.90;;;;;;5006380;28;20030;-86
2022/05/13 01:28:38;;;;;;;11.70;9.55;;;16.50;99.90;;;;;;5003456;28;20026;-89
2022/05/13 01:31:35;;;;;;;11.25;10.05;;;16.40;99.90;;;;;;5005050;28;20389;-87
2022/05/13 01:34:04;;;;;;;11.70;9.90;;;16.40;99.90;;;;;;5004957;28;20516;-89
2022/05/13 01:36:30;;;;;;;15.68;10.30;;;16.30;99.90;;;;;;5005239;28;20029;-90
2022/05/13 01:38:56;;;;;;;14.63;10.57;;;16.40;99.90;;;;;;5011472;28;20034;-90
2022/05/13 01:41:22;;;;;;;11.23;9.60;;;16.40;99.90;;;;;;5011553;28;20026;-89
2022/05/13 01:43:49;;;;;;;15.70;10.65;;;16.30;99.90;;;;;;5012433;28;20041;-88
2022/05/13 01:46:52;;;;;;;24.40;10.90;;;16.30;99.90;;;;;;5005895;28;20069;-87
2022/05/13 01:49:52;;;;;;;11.95;9.50;;;16.30;99.90;;;;;;5037420;28;20125;-86
2022/05/13 01:52:18;;;;;;;12.07;9.20;;;16.30;99.90;;;;;;4963458;28;20131;-89
2022/05/13 01:54:44;;;;;;;13.85;9.20;;;16.30;99.90;;;;;;5042472;28;20261;-90
2022/05/13 01:57:10;;;;;;;14.15;8.35;;;16.30;99.90;;;;;;5044015;28;20079;-89
2022/05/13 01:59:36;;;;;;;10.88;9.05;;;16.30;99.90;;;;;;5019703;28;20029;-89
2022/05/13 02:02:02;;;;;;;17.73;9.05;;;16.30;99.90;;;;;;5038300;28;20392;-89
2022/05/13 02:04:28;;;;;;;16.15;8.57;;;16.30;99.90;;;;;;5038557;28;20032;-88
2022/05/13 02:06:53;;;;;;;11.57;8.63;;;16.30;99.90;;;;;;5041220;28;20058;-88
2022/05/13 02:09:19;;;;;;;13.30;9.27;;;16.20;99.90;;;;;;5021452;28;20083;-88
2022/05/13 02:11:45;;;;;;;11.00;8.05;;;16.20;99.90;;;;;;5041051;28;21097;-88
2022/05/13 02:14:13;;;;;;;11.88;8.77;;;16.20;99.90;;;;;;5036560;28;20124;-88
2022/05/13 02:16:39;;;;;;;9.48;8.57;;;16.20;99.90;;;;;;5043362;28;20047;-87
2022/05/13 02:19:05;;;;;;;10.75;7.97;;;16.10;99.90;;;;;;5028972;28;20659;-89
2022/05/13 02:21:30;;;;;;;10.68;8.18;;;16.10;99.90;;;;;;5041748;28;20032;-88
2022/05/13 02:23:56;;;;;;;14.77;7.93;;;16.10;99.90;;;;;;5040890;28;20056;-88
2022/05/13 02:26:22;;;;;;;14.65;8.10;;;16.00;99.90;;;;;;5024507;28;20025;-88
2022/05/13 02:28:48;;;;;;;9.60;7.47;;;16.10;99.90;;;;;;5044007;28;20017;-89
2022/05/13 02:31:16;;;;;;;9.55;7.85;;;16.00;99.90;;;;;;5024822;28;20067;-88
2022/05/13 02:33:43;;;;;;;10.25;7.95;;;16.00;99.90;;;;;;5024537;28;20055;-89
2022/05/13 02:36:11;;;;;;;10.10;7.30;;;16.00;99.90;;;;;;5021348;28;20021;-88
2022/05/13 02:38:37;;;;;;;15.85;8.10;;;16.00;99.90;;;;;;5040094;28;20021;-87
2022/05/13 02:41:13;;;;;;;8.20;7.40;;;16.00;99.90;;;;;;5022004;28;20361;-87
2022/05/13 02:43:49;;;;;;;10.10;7.22;;;15.90;99.90;;;;;;5043579;28;20025;-89
2022/05/13 02:46:18;;;;;;;9.27;7.72;;;15.90;99.90;;;;;;5041018;28;20384;-89
2022/05/13 02:48:44;;;;;;;11.40;7.32;;;15.90;99.90;;;;;;5045036;28;20041;-88
2022/05/13 02:51:10;;;;;;;14.30;7.38;;;15.90;99.90;;;;;;5042348;28;20126;-87
2022/05/13 02:53:36;;;;;;;9.73;8.20;;;15.80;99.90;;;;;;5039705;28;20499;-89
2022/05/13 02:56:01;;;;;;;9.27;7.57;;;15.80;99.90;;;;;;5039125;28;20056;-88
2022/05/13 02:58:27;;;;;;;15.50;7.75;;;15.80;99.90;;;;;;5023489;28;20033;-88
2022/05/13 03:00:53;;;;;;;10.80;8.20;;;15.80;99.90;;;;;;5039745;28;20036;-88
2022/05/13 03:03:19;;;;;;;11.55;7.80;;;15.80;99.90;;;;;;5031917;28;20054;-88
2022/05/13 03:05:45;;;;;;;10.88;7.47;;;15.90;99.90;;;;;;5038672;28;20030;-87
2022/05/13 03:08:10;;;;;;;9.02;7.15;;;15.90;99.90;;;;;;5022212;28;20034;-89
2022/05/13 03:10:38;;;;;;;11.40;7.45;;;16.00;99.90;;;;;;5029342;28;20030;-89
2022/05/13 03:13:06;;;;;;;11.10;7.50;;;15.90;99.90;;;;;;5041726;28;20135;-87
2022/05/13 03:15:32;;;;;;;12.43;7.60;;;16.00;99.90;;;;;;5038400;28;20025;-88
2022/05/13 03:17:58;;;;;;;12.30;7.53;;;15.90;99.90;;;;;;5041392;28;20083;-88
2022/05/13 03:20:25;;;;;;;10.07;7.82;;;15.90;99.90;;;;;;5021032;28;20025;-88
2022/05/13 03:22:51;;;;;;;12.48;7.20;;;15.90;99.90;;;;;;5041212;28;20069;-87
2022/05/13 03:25:19;;;;;;;9.48;7.07;;;15.90;99.90;;;;;;5038822;28;20016;-88
2022/05/13 03:27:45;;;;;;;8.35;6.53;;;15.90;99.90;;;;;;5040363;28;20107;-88
2022/05/13 03:30:14;;;;;;;11.43;6.53;;;16.00;99.90;;;;;;5038517;28;20024;-89
2022/05/13 03:32:40;;;;;;;7.90;7.00;;;15.90;99.90;;;;;;5039290;28;20483;-89
2022/05/13 03:35:09;;;;;;;12.05;7.22;;;15.90;99.90;;;;;;5044452;28;20395;-89
2022/05/13 03:37:35;;;;;;;9.25;6.28;;;16.00;99.90;;;;;;5018356;28;20037;-89
2022/05/13 03:40:00;;;;;;;9.55;6.60;;;16.00;99.90;;;;;;5019941;28;20415;-89
2022/05/13 03:42:40;;;;;;;8.95;6.85;;;16.00;99.90;;;;;;5036510;28;20018;-86
2022/05/13 03:45:08;;;;;;;8.32;6.72;;;16.00;99.90;;;;;;5040048;28;20053;-88
2022/05/13 03:47:33;;;;;;;8.43;7.18;;;16.10;99.90;;;;;;5038577;28;20045;-87
2022/05/13 03:49:59;;;;;;;12.90;6.85;;;16.00;99.90;;;;;;5045712;28;20108;-88
2022/05/13 03:52:26;;;;;;;10.95;6.72;;;16.10;99.90;;;;;;5040734;28;20040;-88
2022/05/13 03:54:53;;;;;;;7.03;6.25;;;16.00;99.90;;;;;;5026586;28;20120;-88
2022/05/13 03:57:19;;;;;;;8.82;5.93;;;16.10;99.90;;;;;;5021802;28;20113;-86
2022/05/13 03:59:45;;;;;;;9.95;6.40;;;16.10;99.90;;;;;;5019400;28;20032;-86
2022/05/13 04:02:11;;;;;;;10.27;6.60;;;16.20;99.90;;;;;;5022234;28;20036;-88
2022/05/13 04:10:07;;;;;;;10.88;6.78;;;16.30;99.90;;;;;;5038010;28;20029;-87
2022/05/13 04:21:36;;;;;;;8.50;6.38;;;16.40;99.90;;;;;;5039825;28;20121;-88
2022/05/13 04:24:05;;;;;;;10.15;6.18;;;16.50;99.90;;;;;;5037659;28;20025;-88
2022/05/13 04:26:37;;;;;;;14.50;6.20;;;16.60;99.90;;;;;;5038280;28;20024;-88
2022/05/13 04:29:05;;;;;;;7.35;6.00;;;16.60;99.90;;;;;;5036059;28;20018;-87
2022/05/13 04:31:39;;;;;;;10.38;6.10;;;16.70;99.90;;;;;;5037948;28;20029;-87
2022/05/13 04:34:06;;;;;;;9.65;6.03;;;16.80;99.90;;;;;;5026133;28;20453;-88
2022/05/13 04:36:51;;;;;;;9.10;6.47;;;16.80;99.90;;;;;;5019475;28;20026;-85
2022/05/13 04:39:32;;;;;;;7.07;5.70;;;16.90;99.90;;;;;;5046332;28;20025;-86
2022/05/13 04:44:45;;;;;;;10.18;6.13;;;17.00;99.90;;;;;;5037410;28;20129;-88
2022/05/13 04:50:21;;;;;;;7.55;5.85;;;17.20;99.90;;;;;;5035966;28;20132;-86
2022/05/13 04:52:50;;;;;;;18.33;6.45;;;17.30;99.90;;;;;;5008639;28;20049;-86
2022/05/13 04:55:52;;;;;;;;;;;;;;;;;;;;;
2022/05/13 04:58:19;;;;;;;9.18;6.38;;;17.40;99.90;;;;;;5041680;28;20484;-86
2022/05/13 05:00:47;;;;;;;10.52;6.40;;;17.50;99.90;;;;;;5042135;28;20038;-88
2022/05/13 05:03:15;;;;;;;9.82;6.55;;;17.50;99.90;;;;;;5038359;28;20051;-86
2022/05/13 05:05:42;;;;;;;16.40;6.20;;;17.50;99.90;;;;;;5042124;28;20028;-86
2022/05/13 05:08:09;;;;;;;13.80;6.00;;;17.60;99.90;;;;;;5040741;28;20056;-87
2022/05/13 05:10:35;;;;;;;8.43;6.00;;;17.70;99.90;;;;;;5044823;28;20037;-87
2022/05/13 05:13:01;;;;;;;6.68;5.93;;;17.80;99.90;;;;;;5040903;28;20043;-88
2022/05/13 05:15:27;;;;;;;10.63;6.20;;;18.00;99.90;;;;;;5040447;28;20374;-88
2022/05/13 05:17:53;;;;;;;13.32;7.15;;;18.00;99.90;;;;;;5022279;28;20034;-88
2022/05/13 05:20:20;;;;;;;17.42;6.85;;;18.20;99.90;;;;;;5025610;28;20022;-90
2022/05/13 05:22:51;;;;;;;8.07;5.95;;;18.20;99.90;;;;;;5040372;28;20021;-87
2022/05/13 05:25:20;;;;;;;11.45;6.60;;;18.20;99.90;;;;;;5023138;28;20021;-86
2022/05/13 05:27:47;;;;;;;10.48;6.72;;;18.30;99.90;;;;;;5021182;28;20036;-89
2022/05/13 05:30:17;;;;;;;12.80;6.95;;;18.40;99.90;;;;;;5043951;28;20018;-86
2022/05/13 05:32:43;;;;;;;21.20;6.57;;;18.50;99.90;;;;;;5039260;28;20053;-87
2022/05/13 05:35:13;;;;;;;6.72;5.57;;;18.50;99.90;;;;;;5043007;28;20021;-89
2022/05/13 05:37:39;;;;;;;10.63;6.20;;;18.60;99.90;;;;;;5039451;28;20060;-89
2022/05/13 05:40:05;;;;;;;9.05;6.03;;;18.70;99.90;;;;;;5043322;28;20079;-89
2022/05/13 05:42:31;;;;;;;10.98;6.28;;;18.80;99.90;;;;;;5043016;28;20056;-89
2022/05/13 05:44:57;;;;;;;17.60;6.60;;;18.90;99.90;;;;;;5015362;28;20471;-90
2022/05/13 05:47:24;;;;;;;14.93;6.30;;;19.00;99.90;;;;;;5020828;28;20025;-89
2022/05/13 05:49:50;;;;;;;7.75;5.78;;;19.10;99.90;;;;;;5027445;28;20025;-88
2022/05/13 05:52:16;;;;;;;15.57;6.57;;;19.20;99.90;;;;;;5025142;28;20068;-90
2022/05/13 05:57:56;;;;;;;19.75;6.60;;;19.40;99.90;;;;;;4999859;28;20524;-89
2022/05/13 06:00:22;;;;;;;10.48;5.90;;;19.50;99.90;;;;;;5039860;28;20025;-90
2022/05/13 06:02:48;;;;;;;14.93;5.88;;;19.60;99.90;;;;;;5043708;28;20052;-91
2022/05/13 06:05:13;;;;;;;17.75;6.10;;;19.70;99.90;;;;;;5042908;28;20110;-85
2022/05/13 06:07:39;;;;;;;15.57;6.72;;;19.80;99.90;;;;;;5040675;28;20048;-84
2022/05/13 06:10:05;;;;;;;20.30;6.18;;;19.90;99.90;;;;;;5038983;28;20025;-86
2022/05/13 06:12:31;;;;;;;15.02;5.68;;;20.00;99.90;;;;;;5025194;28;20608;-86
2022/05/13 06:14:57;;;;;;;14.15;5.85;;;20.10;99.90;;;;;;5046287;28;20079;-85
2022/05/13 06:17:23;;;;;;;17.75;5.53;;;20.20;99.90;;;;;;5042004;28;20480;-86
2022/05/13 06:19:49;;;;;;;11.02;5.10;;;20.30;99.90;;;;;;5046037;28;20041;-85
2022/05/13 06:22:15;;;;;;;9.52;5.07;;;20.40;99.90;;;;;;5042229;28;20029;-86
2022/05/13 06:24:41;;;;;;;10.93;5.10;;;20.50;99.90;;;;;;5041092;28;20057;-86
2022/05/13 06:27:06;;;;;;;14.25;5.95;;;20.50;99.90;;;;;;5039798;28;20108;-89
2022/05/13 06:29:35;;;;;;;14.18;5.55;;;20.50;99.90;;;;;;5046552;28;20025;-83
2022/05/13 06:32:00;;;;;;;12.55;5.65;;;20.50;99.90;;;;;;5036872;28;20108;-86
2022/05/13 06:34:26;;;;;;;12.88;6.20;;;20.50;99.90;;;;;;5036671;28;20104;-85
2022/05/13 06:36:52;;;;;;;14.88;6.65;;;20.50;99.90;;;;;;5021041;28;20021;-88
2022/05/13 06:39:18;;;;;;;14.90;7.38;;;20.60;99.90;;;;;;5046656;28;20032;-83
2022/05/13 06:41:47;;;;;;;20.00;7.32;;;20.60;99.90;;;;;;5022984;28;20487;-86
2022/05/13 06:44:18;;;;;;;16.98;7.18;;;20.50;99.90;;;;;;5038002;28;20029;-84
2022/05/13 06:46:44;;;;;;;9.63;6.00;;;20.50;99.90;;;;;;5037194;28;20060;-84
2022/05/13 06:49:12;;;;;;;19.55;7.63;;;20.40;99.90;;;;;;5037187;28;20100;-84
2022/05/13 06:51:40;;;;;;;34.20;7.72;;;20.30;99.90;;;;;;5024855;28;20476;-84
2022/05/13 06:54:09;;;;;;;21.00;7.18;;;20.40;99.90;;;;;;5039251;28;20503;-83
2022/05/13 06:56:36;;;;;;;14.43;6.72;;;20.40;99.90;;;;;;5041720;28;20120;-84
2022/05/13 06:59:04;;;;;;;13.90;6.22;;;20.40;99.90;;;;;;5045122;28;20498;-84
2022/05/13 07:01:30;;;;;;;10.40;5.63;;;20.40;99.90;;;;;;5037872;28;20035;-84
2022/05/13 07:03:56;;;;;;;11.38;5.40;;;20.50;99.90;;;;;;5044764;28;20048;-84
2022/05/13 07:06:22;;;;;;;7.15;5.50;;;20.60;99.90;;;;;;5042545;28;20029;-84
2022/05/13 07:08:50;;;;;;;10.50;5.68;;;20.60;99.90;;;;;;5039034;28;20030;-83
2022/05/13 07:11:20;;;;;;;15.25;5.35;;;20.70;99.90;;;;;;5040961;28;20037;-84
2022/05/13 07:13:46;;;;;;;10.57;5.90;;;20.70;99.90;;;;;;5019841;28;20423;-85
2022/05/13 07:16:12;;;;;;;12.07;6.05;;;20.90;99.90;;;;;;5037358;28;20029;-84
2022/05/13 07:18:39;;;;;;;10.00;5.65;;;21.00;99.90;;;;;;5039544;28;20029;-85
2022/05/13 07:21:05;;;;;;;12.98;6.10;;;21.10;99.90;;;;;;5042706;28;20384;-84
2022/05/13 07:23:31;;;;;;;9.00;6.55;;;21.10;99.90;;;;;;5024691;28;20395;-84
2022/05/13 07:25:58;;;;;;;17.15;6.43;;;21.10;99.90;;;;;;5039598;28;20021;-85
2022/05/13 07:28:26;;;;;;;12.70;6.78;;;21.20;99.90;;;;;;5041855;28;20059;-86
2022/05/13 07:30:52;;;;;;;16.98;6.60;;;21.20;99.90;;;;;;5035095;28;20032;-85
2022/05/13 07:33:18;;;;;;;15.77;6.32;;;21.20;99.90;;;;;;5042389;28;20583;-85
2022/05/13 07:35:43;;;;;;;15.00;6.70;;;21.20;99.90;;;;;;5037894;28;20083;-85
2022/05/13 07:38:09;;;;;;;11.63;5.43;;;21.30;99.90;;;;;;5038667;28;20029;-94
2022/05/13 07:43:19;;;;;;;17.38;6.30;;;21.50;99.90;;;;;;5036633;28;20033;-87
2022/05/13 07:45:45;;;;;;;28.45;6.80;;;21.60;99.90;;;;;;5016730;28;20387;-85
2022/05/13 07:48:11;;;;;;;17.02;6.57;;;21.60;99.90;;;;;;5037712;28;20148;-86
2022/05/13 07:50:37;;;;;;;27.90;7.97;;;21.70;99.90;;;;;;5044610;28;20070;-85
2022/05/13 07:53:06;;;;;;;25.98;6.75;;;21.70;99.90;;;;;;5038573;28;20033;-84
2022/05/13 07:55:32;;;;;;;17.20;6.55;;;21.80;99.90;;;;;;5037252;28;20029;-84
2022/05/13 07:57:57;;;;;;;17.63;7.05;;;21.70;99.90;;;;;;5042120;28;20103;-85
2022/05/13 08:00:32;;;;;;;19.48;6.15;;;21.60;99.90;;;;;;5018140;28;20021;-86
2022/05/13 08:03:02;;;;;;;11.90;5.97;;;21.60;99.90;;;;;;5040368;28;20071;-86
2022/05/13 08:05:42;;;;;;;16.83;6.50;;;21.70;99.90;;;;;;5041683;28;20044;-86
2022/05/13 08:08:16;;;;;;;13.13;6.22;;;21.70;99.90;;;;;;5021852;28;20119;-86
2022/05/13 08:10:46;;;;;;;12.90;6.07;;;21.80;99.90;;;;;;5028281;28;20029;-86
2022/05/13 08:13:12;;;;;;;10.25;5.97;;;21.70;99.90;;;;;;5041332;28;20487;-86
2022/05/13 08:15:38;;;;;;;16.20;5.78;;;21.60;99.90;;;;;;5018862;28;20079;-86
2022/05/13 08:18:04;;;;;;;11.32;5.72;;;21.50;99.90;;;;;;5041315;28;20029;-85
2022/05/13 08:20:31;;;;;;;10.23;5.97;;;21.50;99.90;;;;;;5037212;28;20029;-86
2022/05/13 08:23:00;;;;;;;7.90;5.60;;;21.50;99.90;;;;;;5023341;28;20419;-86
2022/05/13 08:25:28;;;;;;;9.18;5.75;;;21.50;99.90;;;;;;5043659;28;20028;-85
2022/05/13 08:27:54;;;;;;;13.18;5.40;;;21.50;99.90;;;;;;5022164;28;20065;-86
2022/05/13 08:30:20;;;;;;;6.40;5.75;;;21.50;99.90;;;;;;5026135;28;20055;-86
2022/05/13 08:32:46;;;;;;;9.05;5.70;;;21.50;99.90;;;;;;5038869;28;20037;-84
2022/05/13 08:35:14;;;;;;;11.57;5.57;;;21.50;99.90;;;;;;5044268;28;20286;-84
2022/05/13 08:37:48;;;;;;;16.98;6.22;;;21.50;99.90;;;;;;5038416;28;20032;-84
2022/05/13 08:40:26;;;;;;;9.02;5.22;;;21.60;99.90;;;;;;5026226;28;20248;-84
2022/05/13 08:42:52;;;;;;;12.07;5.53;;;21.70;99.90;;;;;;5040233;28;20483;-83
2022/05/13 08:45:20;;;;;;;7.22;5.32;;;21.80;99.90;;;;;;5042994;28;20037;-83
2022/05/13 08:47:57;;;;;;;9.40;5.60;;;21.70;99.90;;;;;;5036511;28;20044;-86
2022/05/13 08:50:40;;;;;;;8.20;5.55;;;21.90;99.90;;;;;;5025570;28;20029;-84
2022/05/13 08:53:16;;;;;;;10.88;6.32;;;21.90;99.90;;;;;;5037548;28;20369;-86
2022/05/13 08:55:47;;;;;;;14.75;6.65;;;21.90;99.90;;;;;;5018956;28;20037;-85
2022/05/13 08:58:23;;;;;;;18.43;5.57;;;21.90;99.90;;;;;;5022803;28;20028;-84
2022/05/13 09:00:51;;;;;;;12.50;5.90;;;21.90;99.90;;;;;;5023076;28;20272;-86
2022/05/13 09:03:45;;;;;;;7.82;5.47;;;22.10;99.90;;;;;;5022277;28;20116;-84
2022/05/13 09:06:16;;;;;;;9.88;6.07;;;22.20;99.90;;;;;;5022735;28;20061;-85
2022/05/13 09:08:45;;;;;;;14.40;6.35;;;22.20;99.90;;;;;;5041947;28;20075;-86
2022/05/13 09:11:31;;;;;;;16.38;6.18;;;22.30;99.90;;;;;;5022742;28;20051;-86
2022/05/13 09:14:17;;;;;;;11.98;5.90;;;22.30;99.90;;;;;;5041322;28;20480;-85
2022/05/13 09:16:49;;;;;;;8.38;5.63;;;22.10;99.90;;;;;;5034548;28;20029;-86
2022/05/13 09:19:47;;;;;;;8.93;5.67;;;21.90;99.90;;;;;;5035302;28;20039;-87
2022/05/13 09:22:13;;;;;;;8.65;5.20;;;21.90;99.90;;;;;;5040600;28;20770;-85
2022/05/13 09:24:43;;;;;;;14.55;5.78;;;22.00;99.90;;;;;;5047264;28;20033;-85
2022/05/13 09:27:09;;;;;;;11.77;5.70;;;22.10;99.90;;;;;;5045396;28;20038;-85
2022/05/13 09:29:43;;;;;;;12.98;5.60;;;22.10;99.90;;;;;;5022827;28;20028;-85
2022/05/13 09:32:26;;;;;;;13.23;6.05;;;22.20;99.90;;;;;;5023129;28;20029;-85
2022/05/13 09:35:00;;;;;;;10.18;6.68;;;22.00;99.90;;;;;;5045421;28;20488;-85
2022/05/13 09:37:34;;;;;;;14.00;6.60;;;21.90;99.90;;;;;;5040835;28;20029;-85
2022/05/13 09:40:23;;;;;;;9.43;5.90;;;22.10;99.90;;;;;;5047077;28;20026;-86
2022/05/13 09:42:51;;;;;;;9.70;6.13;;;22.10;99.90;;;;;;5040804;28;20022;-85
2022/05/13 09:45:29;;;;;;;7.05;5.97;;;22.30;99.90;;;;;;5046501;28;20408;-86
2022/05/13 09:48:04;;;;;;;9.30;6.18;;;22.30;99.90;;;;;;5023806;28;20057;-85
2022/05/13 09:50:33;;;;;;;12.52;6.82;;;22.30;99.90;;;;;;5044335;28;20017;-85
2022/05/13 09:53:24;;;;;;;14.32;6.78;;;22.40;99.90;;;;;;5045818;28;20064;-85
2022/05/13 09:55:52;;;;;;;12.55;6.68;;;22.50;99.90;;;;;;5010474;28;20030;-85
2022/05/13 09:58:20;;;;;;;10.38;6.32;;;22.60;99.90;;;;;;5025459;28;20051;-83
2022/05/13 10:00:53;;;;;;;11.10;7.07;;;22.70;99.90;;;;;;5045030;28;20094;-85
2022/05/13 10:03:21;;;;;;;12.85;7.15;;;22.70;99.90;;;;;;5042870;28;20179;-87
2022/05/13 10:06:11;;;;;;;12.65;7.60;;;22.60;99.90;;;;;;5028459;28;20040;-84
2022/05/13 10:13:57;;;;;;;10.98;7.20;;;22.30;99.90;;;;;;5020763;28;20459;-84
2022/05/13 10:14:35;;;;;;;8.45;6.30;;;21.90;99.90;;;;;;5046611;28;20047;-83
2022/05/13 10:17:11;;;;;;;11.50;6.90;;;22.10;99.90;;;;;;5024134;28;20025;-84
2022/05/13 10:19:48;;;;;;;9.23;7.40;;;22.40;99.90;;;;;;5038017;28;20029;-84
2022/05/13 10:22:32;;;;;;;10.00;6.95;;;22.50;99.90;;;;;;5041535;28;20048;-84
2022/05/13 10:25:08;;;;;;;11.82;7.05;;;22.60;99.90;;;;;;5027628;28;20442;-83
2022/05/13 10:27:51;;;;;;;7.47;6.32;;;22.80;99.90;;;;;;5032712;28;20029;-86
2022/05/13 10:30:33;;;;;;;10.07;6.65;;;22.60;99.90;;;;;;5038148;28;20021;-84
2022/05/13 10:33:10;;;;;;;8.20;6.85;;;22.80;99.90;;;;;;5040710;28;20033;-84
2022/05/13 10:35:59;;;;;;;15.93;7.00;;;23.00;99.90;;;;;;5029853;28;20025;-83
2022/05/13 10:38:59;;;;;;;9.80;7.80;;;23.10;99.90;;;;;;5042088;28;20032;-83
2022/05/13 10:41:36;;;;;;;9.70;7.32;;;22.80;99.90;;;;;;5044224;28;20025;-83
2022/05/13 10:44:30;;;;;;;13.27;6.90;;;22.70;99.90;;;;;;5037286;28;20029;-85
2022/05/13 10:47:01;;;;;;;9.85;6.80;;;22.80;99.90;;;;;;5037988;28;20045;-84
2022/05/13 10:49:34;;;;;;;10.35;6.82;;;22.80;99.90;;;;;;5044772;28;20045;-85
2022/05/13 10:52:19;;;;;;;14.55;6.78;;;22.60;99.90;;;;;;5042724;28;20026;-86
2022/05/13 10:54:58;;;;;;;10.13;6.75;;;22.60;99.90;;;;;;5038633;28;20407;-85
2022/05/13 10:57:30;;;;;;;9.52;7.15;;;22.50;99.90;;;;;;5040570;28;20053;-84
2022/05/13 11:00:05;;;;;;;11.48;7.10;;;22.40;99.90;;;;;;5047305;28;20030;-83
2022/05/13 11:02:56;;;;;;;10.80;7.05;;;22.60;99.90;;;;;;5039865;28;20022;-85
2022/05/13 11:05:34;;;;;;;10.40;6.88;;;22.40;99.90;;;;;;5038760;28;20079;-85
2022/05/13 11:08:12;;;;;;;11.88;6.57;;;22.40;99.90;;;;;;5024851;28;20393;-84
2022/05/13 11:11:28;;;;;;;7.40;6.53;;;22.50;99.90;;;;;;5011705;28;20026;-85
2022/05/13 11:13:54;;;;;;;10.52;6.13;;;22.70;99.90;;;;;;4961660;28;20105;-84
2022/05/13 11:16:48;;;;;;;13.93;6.53;;;22.70;99.90;;;;;;5023101;28;20183;-84
2022/05/13 11:19:37;;;;;;;18.00;7.43;;;22.40;99.90;;;;;;5036202;28;20026;-84
2022/05/13 11:22:40;;;;;;;13.18;7.13;;;22.40;99.90;;;;;;5042066;28;20026;-83
2022/05/13 11:28:28;;;;;;;9.30;6.70;;;22.60;99.90;;;;;;5036563;28;20323;-84
2022/05/13 11:31:07;;;;;;;6.88;6.00;;;22.80;99.90;;;;;;5039211;28;20115;-84
2022/05/13 11:33:32;;;;;;;7.65;6.15;;;23.20;99.90;;;;;;5042778;28;20056;-84
2022/05/13 11:36:26;;;;;;;8.00;5.88;;;23.20;99.90;;;;;;5042251;28;20615;-82
2022/05/13 11:39:03;;;;;;;10.40;5.93;;;23.10;99.90;;;;;;5035277;28;20382;-84
2022/05/13 11:41:57;;;;;;;10.27;5.70;;;23.10;99.90;;;;;;5042154;28;20025;-83
2022/05/13 11:44:43;;;;;;;11.15;5.60;;;23.20;99.90;;;;;;5036838;28;20040;-86
2022/05/13 11:47:10;;;;;;;15.68;5.95;;;23.20;99.90;;;;;;4973120;28;20037;-84
2022/05/13 11:49:40;;;;;;;10.73;5.85;;;23.20;99.90;;;;;;5046538;28;20037;-85
2022/05/13 11:52:12;;;;;;;12.68;5.82;;;23.10;99.90;;;;;;5041451;28;20063;-82
2022/05/13 11:54:40;;;;;;;9.35;6.03;;;23.00;99.90;;;;;;5043846;28;20045;-83
2022/05/13 11:57:39;;;;;;;10.05;6.15;;;23.00;99.90;;;;;;5038551;28;20087;-83
2022/05/13 12:00:34;;;;;;;9.98;5.97;;;23.30;99.90;;;;;;5016975;28;20436;-84
2022/05/13 12:03:26;;;;;;;8.65;5.15;;;25.50;99.90;;;;;;5043745;28;20017;-83
2022/05/13 12:06:05;;;;;;;10.50;5.07;;;27.90;99.90;;;;;;5012514;28;20048;-84
2022/05/13 12:08:42;;;;;;;10.20;5.35;;;28.80;99.90;;;;;;5020643;28;20520;-83
2022/05/13 12:11:29;;;;;;;9.35;5.40;;;29.30;99.90;;;;;;5022912;28;20028;-84
2022/05/13 12:14:21;;;;;;;13.30;5.88;;;29.60;99.90;;;;;;5041854;28;20076;-83
2022/05/13 12:17:20;;;;;;;6.43;5.32;;;30.20;99.90;;;;;;5036715;28;20025;-83
2022/05/13 12:20:08;;;;;;;11.40;6.22;;;29.80;99.90;;;;;;5037979;28;20025;-88
2022/05/13 12:22:44;;;;;;;12.20;5.72;;;29.60;99.90;;;;;;5038617;28;20068;-83
2022/05/13 12:25:35;;;;;;;13.02;5.90;;;29.60;99.90;;;;;;5016478;28;20051;-85
2022/05/13 12:28:04;;;;;;;13.27;6.10;;;29.70;99.90;;;;;;5021058;28;20067;-81
2022/05/13 12:30:34;;;;;;;10.90;6.03;;;29.80;99.90;;;;;;5025886;28;20021;-82
2022/05/13 12:33:25;;;;;;;15.10;5.93;;;29.90;99.90;;;;;;5022190;28;20039;-84
2022/05/13 12:39:12;;;;;;;9.88;5.70;;;31.00;99.90;;;;;;5040775;28;20090;-86
2022/05/13 12:42:00;;;;;;;16.33;6.28;;;32.00;99.90;;;;;;5039502;28;20025;-87
2022/05/13 12:44:32;;;;;;;11.55;6.30;;;33.40;99.90;;;;;;5021516;28;20037;-84
2022/05/13 12:47:14;;;;;;;8.07;5.60;;;33.90;99.90;;;;;;5039927;28;20499;-85
2022/05/13 12:49:49;;;;;;;13.83;6.67;;;34.00;99.90;;;;;;4990376;28;20068;-81
2022/05/13 12:52:27;;;;;;;8.60;6.57;;;33.60;99.90;;;;;;5001215;28;20273;-81
2022/05/13 12:55:24;;;;;;;9.15;6.20;;;33.70;99.90;;;;;;4997626;28;20396;-82
2022/05/13 12:57:59;;;;;;;14.88;5.65;;;34.00;99.90;;;;;;4997513;28;20046;-81
2022/05/13 13:00:34;;;;;;;9.23;5.78;;;34.90;99.90;;;;;;5007608;28;20504;-82
2022/05/13 13:03:03;;;;;;;9.85;5.82;;;35.00;99.90;;;;;;5005527;28;20026;-82
2022/05/13 13:05:34;;;;;;;13.02;5.45;;;35.50;99.90;;;;;;5012262;28;20026;-82
2022/05/13 13:08:15;;;;;;;17.27;6.22;;;35.70;99.90;;;;;;5002333;28;20026;-82
2022/05/13 13:11:00;;;;;;;9.80;5.30;;;35.30;99.90;;;;;;5000644;28;20032;-82
2022/05/13 13:13:31;;;;;;;11.60;5.40;;;34.70;99.90;;;;;;5002831;28;20042;-83
2022/05/13 13:16:02;;;;;;;10.75;5.30;;;34.60;99.20;;;;;;5002932;28;20023;-83
2022/05/13 13:18:33;;;;;;;10.00;5.32;;;33.90;99.50;;;;;;5004513;28;20461;-83
2022/05/13 13:21:07;;;;;;;9.45;5.60;;;33.50;98.60;;;;;;5002283;28;20050;-85
2022/05/13 13:23:35;;;;;;;9.82;5.40;;;33.10;99.80;;;;;;5004328;28;20034;-82
2022/05/13 13:26:03;;;;;;;7.47;4.97;;;33.70;98.70;;;;;;5002489;28;20026;-83
2022/05/13 13:28:32;;;;;;;13.10;5.20;;;33.60;97.20;;;;;;5001587;28;20026;-83
2022/05/13 13:31:01;;;;;;;11.98;5.22;;;34.00;96.20;;;;;;5002094;28;20022;-84
2022/05/13 13:33:33;;;;;;;9.57;5.22;;;34.00;96.50;;;;;;5003654;28;20448;-90
2022/05/13 13:36:30;;;;;;;8.02;4.80;;;34.00;95.80;;;;;;5005916;28;20030;-86
2022/05/13 13:38:58;;;;;;;13.15;5.13;;;33.40;96.10;;;;;;5004742;28;20056;-88
2022/05/13 13:41:33;;;;;;;13.32;5.40;;;32.90;97.50;;;;;;5003019;28;20026;-86
2022/05/13 13:44:02;;;;;;;9.50;4.97;;;32.80;96.90;;;;;;5005763;28;20038;-86
2022/05/13 13:46:33;;;;;;;13.15;4.43;;;33.20;95.30;;;;;;5003028;28;20133;-85
2022/05/13 13:49:01;;;;;;;20.08;4.97;;;33.10;94.90;;;;;;5036035;28;20380;-85